Time;durP1;ratioP1;P1;durP2;ratioP2;P2;SDS_P1;SDS_P2;PMS_P1;PMS_P2;Temp;Humidity;BMP_temperature;BMP_pressure;BME280_temperature;BME280_humidity;BME280_pressure;Samples;Min_cycle;Max_cycle;Signal;HPM_P1;HPM_P2
2023/01/27 00:01:36;;;;;;;33.58;13.27;;;;;;;;;;4900834;29;20040;-71
2023/01/27 00:04:02;;;;;;;32.08;13.05;;;;;;;;;;4903345;29;20043;-71
2023/01/27 00:06:28;;;;;;;33.80;12.57;;;;;;;;;;4909046;29;20040;-70
2023/01/27 00:08:54;;;;;;;26.95;10.73;;;;;;;;;;4902055;29;20032;-71
2023/01/27 00:14:05;;;;;;;35.70;11.80;;;;;;;;;;4913997;29;20043;-70
2023/01/27 00:16:31;;;;;;;30.25;10.55;;;;;;;;;;4900304;29;20119;-70
2023/01/27 00:19:00;;;;;;;30.23;10.32;;;;;;;;;;4890250;29;20040;-71
2023/01/27 00:24:54;;;;;;;25.95;9.82;;;;;;;;;;4904624;29;20032;-71
2023/01/27 00:27:01;;;;;;;33.80;9.85;;;;;;;;;;4907484;29;20050;-71
2023/01/27 00:29:27;;;;;;;20.27;8.90;;;;;;;;;;4917369;29;20040;-71
2023/01/27 00:34:40;;;;;;;20.38;8.32;;;;;;;;;;4914655;29;20474;-70
2023/01/27 00:37:06;;;;;;;23.25;8.60;;;;;;;;;;4917160;29;20044;-71
2023/01/27 00:39:32;;;;;;;15.80;8.07;;;;;;;;;;4914162;29;20036;-70
2023/01/27 00:41:58;;;;;;;19.20;8.52;;;;;;;;;;4915081;29;20046;-70
2023/01/27 00:44:24;;;;;;;22.73;8.05;;;;;;;;;;4899890;29;20084;-70
2023/01/27 00:46:50;;;;;;;19.17;8.23;;;;;;;;;;4917398;29;20040;-70
2023/01/27 00:49:17;;;;;;;24.00;8.40;;;;;;;;;;4917029;29;20092;-70
2023/01/27 00:51:43;;;;;;;23.85;8.90;;;4.90;99.90;;;;;;4907375;29;20048;-71
2023/01/27 00:54:09;;;;;;;22.92;9.55;;;;;;;;;;4900276;29;20047;-70
2023/01/27 00:56:35;;;;;;;20.85;8.07;;;;;;;;;;4892957;29;20039;-70
2023/01/27 00:59:01;;;;;;;21.02;8.60;;;;;;;;;;4897956;29;20036;-70
2023/01/27 01:01:28;;;;;;;33.55;9.13;;;;;;;;;;4902390;29;20039;-71
2023/01/27 01:03:54;;;;;;;24.30;9.10;;;;;;;;;;4900222;29;20091;-70
2023/01/27 01:06:20;;;;;;;29.77;7.93;;;;;;;;;;4912167;29;20035;-70
2023/01/27 01:08:47;;;;;;;33.53;8.60;;;;;;;;;;4915713;29;20103;-70
2023/01/27 01:11:14;;;;;;;20.85;7.63;;;;;;;;;;4914810;29;20115;-70
2023/01/27 01:13:41;;;;;;;28.85;7.38;;;;;;;;;;4902397;29;20039;-70
2023/01/27 01:16:09;;;;;;;24.42;7.70;;;;;;;;;;4902542;29;20036;-70
2023/01/27 01:18:35;;;;;;;27.67;8.60;;;;;;;;;;4899773;29;20075;-70
2023/01/27 01:21:01;;;;;;;27.73;7.18;;;;;;;;;;4899679;29;20529;-70
2023/01/27 01:23:27;;;;;;;20.33;6.72;;;;;;;;;;4899862;29;20115;-70
2023/01/27 01:25:55;;;;;;;21.73;7.35;;;4.60;99.90;;;;;;4916889;29;20075;-70
2023/01/27 01:28:21;;;;;;;21.73;6.93;;;;;;;;;;4912815;29;20040;-70
2023/01/27 01:30:47;;;;;;;15.55;6.75;;;;;;;;;;4899650;29;20040;-70
2023/01/27 01:33:14;;;;;;;19.63;6.55;;;;;;;;;;4894467;29;20521;-70
2023/01/27 01:35:41;;;;;;;18.52;6.15;;;;;;;;;;4897013;29;20052;-70
2023/01/27 01:38:07;;;;;;;24.15;8.45;;;;;;;;;;4871365;29;20056;-70
2023/01/27 01:40:33;;;;;;;24.38;7.22;;;;;;;;;;4898005;29;20429;-70
2023/01/27 01:43:05;;;;;;;21.40;6.60;;;4.80;99.90;;;;;;4896345;29;20385;-70
2023/01/27 01:45:32;;;;;;;20.83;7.45;;;;;;;;;;4897362;29;20048;-70
2023/01/27 01:48:00;;;;;;;22.25;7.95;;;;;;;;;;4880405;29;20100;-70
2023/01/27 01:50:26;;;;;;;22.70;7.32;;;;;;;;;;4897443;29;20323;-70
2023/01/27 01:52:53;;;;;;;22.65;7.80;;;4.70;99.90;;;;;;4882045;29;20047;-70
2023/01/27 01:55:19;;;;;;;23.98;7.10;;;;;;;;;;4900643;29;20044;-70
2023/01/27 01:57:45;;;;;;;25.00;6.95;;;;;;;;;;4884415;29;20048;-70
2023/01/27 02:00:12;;;;;;;19.50;6.25;;;;;;;;;;4901621;29;20376;-70
2023/01/27 02:02:39;;;;;;;15.80;6.18;;;;;;;;;;4899662;29;20103;-70
2023/01/27 02:05:05;;;;;;;24.63;5.80;;;;;;;;;;4900678;29;20044;-70
2023/01/27 02:07:38;;;;;;;26.55;5.97;;;4.90;99.90;;;;;;4900805;29;20040;-70
2023/01/27 02:10:05;;;;;;;14.68;5.28;;;;;;;;;;4900618;29;20461;-70
2023/01/27 02:12:31;;;;;;;25.42;5.18;;;;;;;;;;4889732;29;20123;-70
2023/01/27 02:14:57;;;;;;;26.92;5.97;;;;;;;;;;4884100;29;20044;-70
2023/01/27 02:17:24;;;;;;;20.13;4.75;;;;;;;;;;4880207;29;20048;-70
2023/01/27 02:19:58;;;;;;;19.35;5.22;;;;;;;;;;4885258;29;20036;-70
2023/01/27 02:22:29;;;;;;;28.20;5.18;;;;;;;;;;4888317;29;20098;-70
2023/01/27 02:24:59;;;;;;;27.55;4.75;;;;;;;;;;4897853;29;20047;-70
2023/01/27 02:27:25;;;;;;;13.77;4.28;;;;;;;;;;4868198;29;20036;-70
2023/01/27 02:29:51;;;;;;;20.75;5.45;;;;;;;;;;4882320;29;20118;-70
2023/01/27 02:32:24;;;;;;;26.85;6.15;;;;;;;;;;4883815;29;20051;-70
2023/01/27 02:34:52;;;;;;;18.40;4.68;;;4.70;99.90;;;;;;4906973;29;20115;-70
2023/01/27 02:37:18;;;;;;;14.98;4.05;;;;;;;;;;4914702;29;20050;-70
2023/01/27 02:39:47;;;;;;;16.00;3.65;;;4.60;99.90;;;;;;4916701;29;20043;-70
2023/01/27 02:42:14;;;;;;;20.15;4.65;;;4.70;99.90;;;;;;4933580;29;20035;-70
2023/01/27 02:44:40;;;;;;;20.55;3.90;;;;;;;;;;4919315;29;20408;-70
2023/01/27 02:47:06;;;;;;;16.55;4.30;;;;;;;;;;4890006;29;20044;-70
2023/01/27 02:49:32;;;;;;;14.55;3.85;;;;;;;;;;4901403;29;20401;-70
2023/01/27 02:51:58;;;;;;;14.60;2.92;;;;;;;;;;4919402;29;20039;-70
2023/01/27 02:54:27;;;;;;;16.45;3.58;;;4.50;99.90;;;;;;4935093;29;20044;-70
2023/01/27 02:56:53;;;;;;;14.85;3.10;;;;;;;;;;4898763;29;20051;-70
2023/01/27 02:59:19;;;;;;;14.75;3.03;;;;;;;;;;4902085;29;20408;-70
2023/01/27 03:01:45;;;;;;;12.95;3.10;;;;;;;;;;4889550;29;20111;-70
2023/01/27 03:04:11;;;;;;;26.88;3.95;;;;;;;;;;4912202;29;20039;-70
2023/01/27 03:06:37;;;;;;;10.13;3.30;;;;;;;;;;4894351;29;20400;-70
2023/01/27 03:09:04;;;;;;;18.23;3.05;;;;;;;;;;4902962;29;20099;-70
2023/01/27 03:14:15;;;;;;;21.67;3.28;;;;;;;;;;4907182;29;20032;-70
2023/01/27 03:19:26;;;;;;;12.65;2.88;;;;;;;;;;4918027;29;20051;-70
2023/01/27 03:21:53;;;;;;;9.60;3.00;;;;;;;;;;4916468;29;20055;-70
2023/01/27 03:24:19;;;;;;;20.48;3.67;;;;;;;;;;4901933;29;20091;-70
2023/01/27 03:26:45;;;;;;;12.93;4.10;;;;;;;;;;4886662;29;20033;-70
2023/01/27 03:31:56;;;;;;;12.98;2.83;;;;;;;;;;4916694;29;20412;-71
2023/01/27 03:34:22;;;;;;;8.35;2.60;;;;;;;;;;4906780;29;20055;-70
2023/01/27 03:47:47;;;;;;;12.90;3.38;;;;;;;;;;4901266;29;20047;-71
2023/01/27 03:50:18;;;;;;;10.10;4.70;;;;;;;;;;4905274;29;20409;-70
2023/01/27 03:53:01;;;;;;;11.93;2.97;;;;;;;;;;4901396;29;20122;-70
2023/01/27 03:55:28;;;;;;;9.85;3.70;;;;;;;;;;4900555;29;20043;-70
2023/01/27 03:57:55;;;;;;;9.82;2.85;;;;;;;;;;4903018;29;20040;-70
2023/01/27 04:00:22;;;;;;;8.40;3.20;;;;;;;;;;4908821;29;20062;-70
2023/01/27 04:08:17;;;;;;;12.25;2.95;;;;;;;;;;4915298;29;20142;-71
2023/01/27 04:11:53;;;;;;;7.70;3.20;;;;;;;;;;4900754;29;20055;-70
2023/01/27 04:13:29;;;;;;;13.88;3.08;;;;;;;;;;4916892;29;20048;-71
2023/01/27 04:15:55;;;;;;;6.63;2.78;;;;;;;;;;4914899;29;20043;-71
2023/01/27 04:18:21;;;;;;;11.98;3.33;;;;;;;;;;4901947;29;20573;-71
2023/01/27 04:20:47;;;;;;;11.15;3.67;;;;;;;;;;4916900;29;20146;-70
2023/01/27 04:23:13;;;;;;;7.15;3.25;;;;;;;;;;4900844;29;20040;-70
2023/01/27 04:25:39;;;;;;;15.10;3.45;;;;;;;;;;4909712;29;20042;-70
2023/01/27 04:28:05;;;;;;;8.85;3.30;;;;;;;;;;4915168;29;20052;-70
2023/01/27 04:30:31;;;;;;;6.55;2.92;;;;;;;;;;4900490;29;20051;-70
2023/01/27 04:33:03;;;;;;;12.02;3.60;;;;;;;;;;4914635;29;20150;-70
2023/01/27 04:35:29;;;;;;;5.63;3.85;;;;;;;;;;4915828;29;20043;-70
2023/01/27 04:37:55;;;;;;;10.88;3.13;;;;;;;;;;4916129;29;20070;-70
2023/01/27 04:40:21;;;;;;;10.40;3.33;;;;;;;;;;4917556;29;20043;-70
2023/01/27 04:42:47;;;;;;;12.05;3.90;;;;;;;;;;4901623;29;20488;-70
2023/01/27 04:45:14;;;;;;;7.30;3.75;;;;;;;;;;4900421;29;20044;-70
2023/01/27 04:47:40;;;;;;;8.52;3.65;;;;;;;;;;4915365;29;20400;-70
2023/01/27 04:50:07;;;;;;;13.93;4.68;;;;;;;;;;4917531;29;20447;-70
2023/01/27 04:52:33;;;;;;;12.02;3.42;;;;;;;;;;4917028;29;20476;-70
2023/01/27 04:54:59;;;;;;;11.40;3.50;;;;;;;;;;4902947;29;20040;-70
2023/01/27 04:57:26;;;;;;;9.05;3.28;;;;;;;;;;4906825;29;20035;-71
2023/01/27 04:59:52;;;;;;;8.18;3.92;;;;;;;;;;4917429;29;20036;-71
2023/01/27 05:02:18;;;;;;;7.18;3.60;;;;;;;;;;4917084;29;20035;-71
2023/01/27 05:04:44;;;;;;;12.10;3.60;;;;;;;;;;4903507;29;20036;-71
2023/01/27 05:07:10;;;;;;;11.88;4.05;;;;;;;;;;4902198;29;20058;-71
2023/01/27 05:09:36;;;;;;;12.88;3.75;;;;;;;;;;4915739;29;20122;-71
2023/01/27 05:12:03;;;;;;;11.77;3.85;;;;;;;;;;4894203;29;20095;-70
2023/01/27 05:14:29;;;;;;;11.15;3.90;;;;;;;;;;4901262;29;20042;-70
2023/01/27 05:16:55;;;;;;;8.77;3.85;;;;;;;;;;4904061;29;20032;-71
2023/01/27 05:19:21;;;;;;;12.65;4.25;;;;;;;;;;4884277;29;20078;-71
2023/01/27 05:21:47;;;;;;;11.88;4.22;;;;;;;;;;4893756;29;20036;-71
2023/01/27 05:24:13;;;;;;;13.73;4.35;;;;;;;;;;4900091;29;20059;-71
2023/01/27 05:26:39;;;;;;;21.88;4.70;;;;;;;;;;4884125;29;20039;-71
2023/01/27 05:29:05;;;;;;;13.73;4.75;;;;;;;;;;4900538;29;20054;-70
2023/01/27 05:31:32;;;;;;;15.95;5.47;;;3.80;99.90;;;;;;4917795;29;20036;-71
2023/01/27 05:33:59;;;;;;;11.43;5.32;;;;;;;;;;4904811;29;20366;-70
2023/01/27 05:36:26;;;;;;;13.18;5.32;;;;;;;;;;4895517;29;20040;-70
2023/01/27 05:38:53;;;;;;;11.52;5.28;;;;;;;;;;4903555;29;20036;-71
2023/01/27 05:41:19;;;;;;;14.43;4.72;;;;;;;;;;4914524;29;20484;-70
2023/01/27 05:43:46;;;;;;;11.85;5.18;;;3.40;99.90;;;;;;4903810;29;20059;-70
2023/01/27 05:46:15;;;;;;;12.93;5.13;;;3.60;99.90;;;;;;4917136;29;20396;-70
2023/01/27 05:48:46;;;;;;;11.15;4.95;;;3.60;99.90;;;;;;4908629;29;20044;-71
2023/01/27 05:51:13;;;;;;;16.48;5.53;;;3.50;99.90;;;;;;4916747;29;20492;-71
2023/01/27 05:53:39;;;;;;;12.65;5.70;;;;;;;;;;4901319;29;20040;-70
2023/01/27 05:56:07;;;;;;;11.73;4.57;;;;;;;;;;4902110;29;20092;-70
2023/01/27 05:58:33;;;;;;;6.90;4.25;;;;;;;;;;4902835;29;20377;-70
2023/01/27 06:01:08;;;;;;;7.05;3.97;;;3.70;99.90;;;;;;4904254;29;20484;-71
2023/01/27 06:03:34;;;;;;;6.40;3.92;;;;;;;;;;4907867;29;20036;-71
2023/01/27 06:06:00;;;;;;;14.73;4.47;;;;;;;;;;4909330;29;20040;-71
2023/01/27 06:08:26;;;;;;;10.07;3.80;;;;;;;;;;4920459;29;20050;-71
2023/01/27 06:10:53;;;;;;;12.77;4.05;;;;;;;;;;4888377;29;20511;-70
2023/01/27 06:13:21;;;;;;;9.23;3.40;;;3.40;99.90;;;;;;4902099;29;20078;-70
2023/01/27 06:15:48;;;;;;;13.20;3.38;;;3.60;99.90;;;;;;4888154;29;20044;-71
2023/01/27 06:18:15;;;;;;;10.20;3.47;;;;;;;;;;4887148;29;20075;-71
2023/01/27 06:20:41;;;;;;;6.45;2.80;;;;;;;;;;4887691;29;20097;-70
2023/01/27 06:23:08;;;;;;;10.80;3.45;;;4.00;99.90;;;;;;4906123;29;20042;-72
2023/01/27 06:25:35;;;;;;;9.13;2.85;;;;;;;;;;4902097;29;20043;-71
2023/01/27 06:28:01;;;;;;;9.45;3.03;;;;;;;;;;4915062;29;20118;-70
2023/01/27 06:30:27;;;;;;;13.25;3.38;;;;;;;;;;4919783;29;20044;-75
2023/01/27 06:32:53;;;;;;;5.78;2.95;;;;;;;;;;4903370;29;20051;-71
2023/01/27 06:35:20;;;;;;;6.78;2.90;;;;;;;;;;4912870;29;20053;-71
2023/01/27 06:37:46;;;;;;;7.32;2.60;;;;;;;;;;4888942;29;20512;-71
2023/01/27 06:40:12;;;;;;;8.73;2.83;;;;;;;;;;4895649;29;20038;-71
2023/01/27 06:42:42;;;;;;;9.50;2.60;;;;;;;;;;4893297;29;20040;-71
2023/01/27 06:45:08;;;;;;;6.03;3.67;;;;;;;;;;4902348;29;20044;-76
2023/01/27 06:47:34;;;;;;;6.68;2.80;;;;;;;;;;4912868;29;20477;-76
2023/01/27 06:50:00;;;;;;;3.78;2.50;;;;;;;;;;4914964;29;20050;-76
2023/01/27 06:52:26;;;;;;;6.35;3.20;;;;;;;;;;4912958;29;20769;-76
2023/01/27 06:54:52;;;;;;;7.30;2.63;;;;;;;;;;4921203;29;20078;-77
2023/01/27 06:57:18;;;;;;;7.53;2.92;;;;;;;;;;4904005;29;20044;-77
2023/01/27 06:59:44;;;;;;;10.80;3.33;;;;;;;;;;4910698;29;20043;-76
2023/01/27 07:02:13;;;;;;;6.35;2.80;;;;;;;;;;4920445;29;20159;-77
2023/01/27 07:04:39;;;;;;;7.90;2.50;;;;;;;;;;4920821;29;20043;-77
2023/01/27 07:07:05;;;;;;;8.82;2.60;;;;;;;;;;4920406;29;20088;-76
2023/01/27 07:09:31;;;;;;;9.65;2.78;;;;;;;;;;4920299;29;20035;-76
2023/01/27 07:11:58;;;;;;;6.80;2.70;;;;;;;;;;4911488;29;20044;-76
2023/01/27 07:14:24;;;;;;;6.55;2.75;;;;;;;;;;4918939;29;20446;-76
2023/01/27 07:16:50;;;;;;;8.23;2.47;;;;;;;;;;4914886;29;20168;-77
2023/01/27 07:19:16;;;;;;;10.68;2.78;;;;;;;;;;4891275;29;20122;-76
2023/01/27 07:21:42;;;;;;;10.27;2.90;;;;;;;;;;4918577;29;20040;-77
2023/01/27 07:24:08;;;;;;;7.50;3.00;;;;;;;;;;4914225;29;20075;-77
2023/01/27 07:26:34;;;;;;;11.52;3.05;;;;;;;;;;4901549;29;20075;-77
2023/01/27 07:29:00;;;;;;;12.75;3.17;;;;;;;;;;4912616;29;20469;-77
2023/01/27 07:31:26;;;;;;;7.38;2.95;;;;;;;;;;4900402;29;20051;-78
2023/01/27 07:33:53;;;;;;;8.95;3.47;;;;;;;;;;4918552;29;20050;-77
2023/01/27 07:36:19;;;;;;;8.45;3.55;;;;;;;;;;4910654;29;20123;-77
2023/01/27 07:38:48;;;;;;;9.80;4.30;;;3.90;99.90;;;;;;4911993;29;20551;-77
2023/01/27 07:41:14;;;;;;;7.45;2.70;;;;;;;;;;4913491;29;20095;-77
2023/01/27 07:43:40;;;;;;;8.98;3.03;;;;;;;;;;4911749;29;20438;-77
2023/01/27 07:46:06;;;;;;;6.05;3.42;;;;;;;;;;4917776;29;20138;-76
2023/01/27 07:48:32;;;;;;;6.63;2.75;;;;;;;;;;4901180;29;20067;-77
2023/01/27 07:50:59;;;;;;;7.82;2.92;;;;;;;;;;4886221;29;20044;-77
2023/01/27 07:53:25;;;;;;;5.85;2.60;;;;;;;;;;4910834;29;20048;-76
2023/01/27 07:55:51;;;;;;;7.60;2.45;;;;;;;;;;4920120;29;20047;-76
2023/01/27 07:58:17;;;;;;;10.02;2.70;;;;;;;;;;4919907;29;20051;-77
2023/01/27 08:00:43;;;;;;;12.27;3.42;;;;;;;;;;4904133;29;20122;-77
2023/01/27 08:03:20;;;;;;;5.68;2.80;;;;;;;;;;4919931;29;20046;-77
2023/01/27 08:05:46;;;;;;;5.20;2.55;;;;;;;;;;4920086;29;20047;-77
2023/01/27 08:08:12;;;;;;;12.40;2.92;;;;;;;;;;4913973;29;20043;-77
2023/01/27 08:10:38;;;;;;;11.43;2.85;;;;;;;;;;4908291;29;20039;-77
2023/01/27 08:13:05;;;;;;;14.73;3.40;;;;;;;;;;4909370;29;20054;-77
2023/01/27 08:15:31;;;;;;;10.13;2.85;;;;;;;;;;4901788;29;20103;-77
2023/01/27 08:17:58;;;;;;;6.63;2.80;;;;;;;;;;4909304;29;20040;-77
2023/01/27 08:20:27;;;;;;;7.45;2.95;;;;;;;;;;4899857;29;20032;-77
2023/01/27 08:22:53;;;;;;;10.05;3.85;;;;;;;;;;4889750;29;20036;-77
2023/01/27 08:25:19;;;;;;;7.22;2.72;;;;;;;;;;4916818;29;20046;-77
2023/01/27 08:27:48;;;;;;;6.55;2.50;;;;;;;;;;4913125;29;20397;-77
2023/01/27 08:30:14;;;;;;;8.98;3.63;;;;;;;;;;4906212;29;21442;-78
2023/01/27 08:32:40;;;;;;;6.47;2.83;;;;;;;;;;4911847;29;20079;-77
2023/01/27 08:35:06;;;;;;;5.88;3.05;;;;;;;;;;4934259;29;20133;-77
2023/01/27 08:37:32;;;;;;;6.93;2.30;;;;;;;;;;4901921;29;20580;-77
2023/01/27 08:39:59;;;;;;;6.28;2.30;;;;;;;;;;4916990;29;20043;-77
2023/01/27 08:42:25;;;;;;;4.22;2.38;;;;;;;;;;4917053;29;20036;-77
2023/01/27 08:44:51;;;;;;;4.18;2.05;;;;;;;;;;4901232;29;20040;-77
2023/01/27 08:47:17;;;;;;;8.20;2.38;;;;;;;;;;4899124;29;20059;-77
2023/01/27 08:49:43;;;;;;;5.28;2.13;;;;;;;;;;4900001;29;20176;-76
2023/01/27 08:52:09;;;;;;;8.45;2.30;;;;;;;;;;4908667;29;20404;-77
2023/01/27 08:54:35;;;;;;;11.38;2.83;;;;;;;;;;4890388;29;20050;-77
2023/01/27 08:57:01;;;;;;;9.88;2.55;;;;;;;;;;4900083;29;20044;-77
2023/01/27 08:59:27;;;;;;;4.47;2.20;;;;;;;;;;4874661;29;20385;-76
2023/01/27 09:01:53;;;;;;;5.55;2.10;;;;;;;;;;4905925;29;20036;-77
2023/01/27 09:04:21;;;;;;;3.33;2.20;;;4.10;99.90;;;;;;4905733;29;20043;-77
2023/01/27 09:06:49;;;;;;;7.38;2.35;;;;;;;;;;4900314;29;20039;-77
2023/01/27 09:09:15;;;;;;;6.00;2.55;;;;;;;;;;4906494;29;20079;-77
2023/01/27 09:11:42;;;;;;;10.77;3.10;;;;;;;;;;4910017;29;20520;-77
2023/01/27 09:14:09;;;;;;;4.85;2.67;;;;;;;;;;4914109;29;20046;-77
2023/01/27 09:16:35;;;;;;;13.60;2.70;;;;;;;;;;4920892;29;20048;-77
2023/01/27 09:19:01;;;;;;;4.53;2.47;;;;;;;;;;4886429;29;20048;-77
2023/01/27 09:21:27;;;;;;;3.83;2.40;;;;;;;;;;4907922;29;20087;-77
2023/01/27 09:23:53;;;;;;;2.88;2.10;;;;;;;;;;4912393;29;20047;-77
2023/01/27 09:26:19;;;;;;;8.50;3.45;;;;;;;;;;4917463;29;20038;-78
2023/01/27 09:28:45;;;;;;;5.82;2.22;;;;;;;;;;4914240;29;20492;-77
2023/01/27 09:31:11;;;;;;;6.75;2.10;;;;;;;;;;4898964;29;20126;-77
2023/01/27 09:33:38;;;;;;;5.35;1.90;;;;;;;;;;4892550;29;20064;-76
2023/01/27 09:36:15;;;;;;;6.00;2.35;;;;;;;;;;4916769;29;20401;-77
2023/01/27 09:38:42;;;;;;;4.80;2.20;;;;;;;;;;4899786;29;20037;-78
2023/01/27 09:41:12;;;;;;;4.38;2.13;;;;;;;;;;4921278;29;20488;-77
2023/01/27 09:43:46;;;;;;;9.30;2.75;;;;;;;;;;4888794;29;20155;-77
2023/01/27 09:46:12;;;;;;;5.85;2.25;;;;;;;;;;4929519;29;20115;-77
2023/01/27 09:48:41;;;;;;;11.77;3.30;;;;;;;;;;4901567;29;20110;-77
2023/01/27 09:51:10;;;;;;;7.93;3.30;;;;;;;;;;4902804;29;20040;-78
2023/01/27 09:53:39;;;;;;;7.25;2.20;;;;;;;;;;4910868;29;20516;-77
2023/01/27 09:56:20;;;;;;;6.22;2.25;;;;;;;;;;4906513;29;20526;-77
2023/01/27 09:59:15;;;;;;;5.32;2.25;;;4.50;99.90;;;;;;4901045;29;20040;-77
2023/01/27 10:01:53;;;;;;;10.70;2.85;;;4.60;99.90;;;;;;4910521;29;20032;-76
2023/01/27 10:04:55;;;;;;;6.30;1.90;;;4.70;99.90;;;;;;4904400;29;20036;-77
2023/01/27 10:07:30;;;;;;;6.80;2.17;;;;;;;;;;4913941;29;20492;-76
2023/01/27 10:09:59;;;;;;;6.30;1.95;;;;;;;;;;4910653;29;20374;-76
2023/01/27 10:12:40;;;;;;;2.60;1.80;;;;;;;;;;4899406;29;20095;-76
2023/01/27 10:15:15;;;;;;;4.40;1.90;;;;;;;;;;4912135;29;20048;-77
2023/01/27 10:17:56;;;;;;;5.80;1.60;;;;;;;;;;4903940;29;20083;-76
2023/01/27 10:20:22;;;;;;;3.88;1.80;;;;;;;;;;4903896;29;20042;-77
2023/01/27 10:22:48;;;;;;;3.58;1.50;;;;;;;;;;4913566;29;20489;-77
2023/01/27 10:25:24;;;;;;;4.07;1.98;;;;;;;;;;4906985;29;20031;-77
2023/01/27 10:27:59;;;;;;;7.32;1.85;;;4.60;99.90;;;;;;4903736;29;20043;-76
2023/01/27 10:30:33;;;;;;;3.05;1.65;;;;;;;;;;4908697;29;20118;-76
2023/01/27 10:33:14;;;;;;;2.60;1.80;;;4.80;99.90;;;;;;4919046;29;20381;-76
2023/01/27 10:35:40;;;;;;;3.33;1.80;;;;;;;;;;4905880;29;20493;-75
2023/01/27 10:38:15;;;;;;;5.50;2.13;;;;;;;;;;4914909;29;20048;-76
2023/01/27 10:40:59;;;;;;;2.22;1.80;;;;;;;;;;4903777;29;20043;-76
2023/01/27 10:43:45;;;;;;;3.22;2.03;;;4.90;99.90;;;;;;4906493;29;20141;-76
2023/01/27 10:46:16;;;;;;;6.22;2.00;;;;;;;;;;4919637;29;20519;-76
2023/01/27 10:49:05;;;;;;;3.65;1.90;;;4.40;99.90;;;;;;4932877;29;20048;-77
2023/01/27 10:51:31;;;;;;;5.07;1.80;;;;;;;;;;4911588;29;20052;-76
2023/01/27 10:54:14;;;;;;;9.07;2.25;;;;;;;;;;4911198;29;20080;-70
2023/01/27 10:56:43;;;;;;;7.50;2.33;;;;;;;;;;4919904;29;20054;-71
2023/01/27 10:59:14;;;;;;;7.22;2.00;;;;;;;;;;4920452;29;20496;-70
2023/01/27 11:01:45;;;;;;;13.20;2.40;;;;;;;;;;4915873;29;20051;-70
2023/01/27 11:04:29;;;;;;;5.82;2.42;;;4.60;99.90;;;;;;4919623;29;20378;-71
2023/01/27 11:06:57;;;;;;;6.78;2.58;;;;;;;;;;4913390;29;20032;-71
2023/01/27 11:09:29;;;;;;;7.55;2.20;;;;;;;;;;4906018;29;20040;-71
2023/01/27 11:12:01;;;;;;;8.30;2.92;;;;;;;;;;4902344;29;20036;-70
2023/01/27 11:14:40;;;;;;;10.35;2.97;;;4.60;99.90;;;;;;4915861;29;20044;-71
2023/01/27 11:17:26;;;;;;;5.07;2.67;;;4.70;99.90;;;;;;4919065;29;20565;-71
2023/01/27 11:19:52;;;;;;;13.90;3.15;;;;;;;;;;4893568;29;20098;-71
2023/01/27 11:22:25;;;;;;;13.48;3.10;;;4.90;99.90;;;;;;4901478;29;20076;-71
2023/01/27 11:24:54;;;;;;;;;;;4.60;99.90;;;;;;4912493;29;20434;-71
2023/01/27 11:27:57;;;;;;;8.30;2.25;;;4.60;99.90;;;;;;4919162;29;19919;-71
2023/01/27 11:30:38;;;;;;;12.60;2.80;;;4.70;99.90;;;;;;4910774;29;20122;-70
2023/01/27 11:33:47;;;;;;;3.92;2.38;;;4.70;99.90;;;;;;4911656;29;20055;-71
2023/01/27 11:36:14;;;;;;;4.82;2.00;;;;;;;;;;4913689;29;20063;-71
2023/01/27 11:38:40;;;;;;;3.38;1.98;;;;;;;;;;4901598;29;20121;-71
2023/01/27 11:41:06;;;;;;;7.20;2.60;;;;;;;;;;4892705;29;20508;-71
2023/01/27 11:43:33;;;;;;;3.92;1.95;;;;;;;;;;4913060;29;20404;-71
2023/01/27 11:46:06;;;;;;;5.13;2.13;;;4.60;99.90;;;;;;4893477;29;20504;-70
2023/01/27 11:48:41;;;;;;;4.45;2.65;;;;;;;;;;4917891;29;20126;-71
2023/01/27 11:51:31;;;;;;;6.55;1.98;;;4.80;99.90;;;;;;4936572;29;20046;-70
2023/01/27 11:54:20;;;;;;;5.07;2.10;;;4.90;99.90;;;;;;4917273;29;20099;-71
2023/01/27 11:56:48;;;;;;;5.78;1.85;;;4.90;99.90;;;;;;4906669;29;20043;-70
2023/01/27 11:59:26;;;;;;;2.10;1.70;;;4.80;99.90;;;;;;4903270;29;20539;-77
2023/01/27 12:02:10;;;;;;;8.05;2.10;;;5.20;99.90;;;;;;4907427;29;20115;-70
2023/01/27 12:04:50;;;;;;;4.95;2.33;;;;;;;;;;4888933;29;20031;-71
2023/01/27 12:07:19;;;;;;;6.88;2.20;;;;;;;;;;4915204;29;20058;-70
2023/01/27 12:09:45;;;;;;;6.30;2.40;;;;;;;;;;4907190;29;20139;-70
2023/01/27 12:12:15;;;;;;;4.85;2.30;;;;;;;;;;4903445;29;20044;-70
2023/01/27 12:14:59;;;;;;;3.78;1.80;;;5.00;99.90;;;;;;4908887;29;20043;-70
2023/01/27 12:17:44;;;;;;;5.82;1.98;;;4.90;99.90;;;;;;4902459;29;20508;-70
2023/01/27 12:20:25;;;;;;;2.00;1.80;;;;;;;;;;4904902;29;20047;-70
2023/01/27 12:23:02;;;;;;;1.90;1.80;;;5.10;99.90;;;;;;4929447;29;20079;-70
2023/01/27 12:25:39;;;;;;;5.15;1.95;;;5.10;99.90;;;;;;4916578;29;20044;-71
2023/01/27 12:28:05;;;;;;;5.63;2.10;;;;;;;;;;4917930;29;20050;-70
2023/01/27 12:30:33;;;;;;;5.10;2.08;;;;;;;;;;4916530;29;20039;-70
2023/01/27 12:32:59;;;;;;;7.10;2.03;;;;;;;;;;4931493;29;20060;-72
2023/01/27 12:35:29;;;;;;;7.78;2.90;;;;;;;;;;4889780;29;20040;-71
2023/01/27 12:38:01;;;;;;;1.70;1.60;;;;;;;;;;4916498;29;20066;-71
2023/01/27 12:40:28;;;;;;;3.60;1.80;;;;;;;;;;4918011;29;20054;-71
2023/01/27 12:43:16;;;;;;;4.18;2.20;;;5.00;99.90;;;;;;4903953;29;20168;-71
2023/01/27 12:45:42;;;;;;;6.80;2.15;;;5.10;99.90;;;;;;4909908;29;20497;-71
2023/01/27 12:48:09;;;;;;;5.75;2.10;;;;;;;;;;4900719;29;20067;-71
2023/01/27 12:50:37;;;;;;;2.25;1.90;;;5.00;99.90;;;;;;4905544;29;20039;-71
2023/01/27 12:53:06;;;;;;;5.57;2.00;;;;;;;;;;4902941;29;20405;-71
2023/01/27 12:56:19;;;;;;;2.72;2.30;;;5.00;99.90;;;;;;4893486;29;20102;-71
2023/01/27 12:58:54;;;;;;;3.83;2.00;;;4.90;99.90;;;;;;4928993;29;20106;-70
2023/01/27 13:01:20;;;;;;;10.18;2.35;;;;;;;;;;4909882;29;20040;-71
2023/01/27 13:03:49;;;;;;;4.57;2.47;;;;;;;;;;4910103;29;20036;-71
2023/01/27 13:06:16;;;;;;;3.65;2.50;;;;;;;;;;4914431;29;20036;-71
2023/01/27 13:08:42;;;;;;;4.40;2.70;;;;;;;;;;4902541;29;20044;-71
2023/01/27 13:11:09;;;;;;;5.18;2.42;;;4.80;99.90;;;;;;4903640;29;20048;-71
2023/01/27 13:13:35;;;;;;;6.18;3.20;;;;;;;;;;4886869;29;20138;-71
2023/01/27 13:16:06;;;;;;;8.00;2.38;;;;;;;;;;4903701;29;20080;-75
2023/01/27 13:18:33;;;;;;;2.55;2.10;;;;;;;;;;4885503;29;20099;-76
2023/01/27 13:21:10;;;;;;;3.45;1.98;;;;;;;;;;4925788;29;20396;-76
2023/01/27 13:23:39;;;;;;;3.78;1.80;;;4.70;99.90;;;;;;4938284;29;20058;-76
2023/01/27 13:26:08;;;;;;;4.30;1.73;;;;;;;;;;4938098;29;20035;-71
2023/01/27 13:28:48;;;;;;;2.45;1.60;;;4.80;99.90;;;;;;4938309;29;20491;-70
2023/01/27 13:31:20;;;;;;;2.50;1.67;;;;;;;;;;4937992;29;20039;-71
2023/01/27 13:34:03;;;;;;;2.92;1.60;;;4.70;99.90;;;;;;4900045;29;20576;-70
2023/01/27 13:36:52;;;;;;;2.55;1.90;;;4.60;99.90;;;;;;4931873;29;20492;-70
2023/01/27 13:39:39;;;;;;;2.65;1.90;;;4.90;99.90;;;;;;4934421;29;20040;-70
2023/01/27 13:42:24;;;;;;;2.38;1.75;;;;;;;;;;4937651;29;20047;-71
2023/01/27 13:45:05;;;;;;;3.30;1.90;;;;;;;;;;4937809;29;20040;-70
2023/01/27 13:47:52;;;;;;;2.03;1.83;;;4.70;99.90;;;;;;4937697;29;20051;-70
2023/01/27 13:50:18;;;;;;;3.63;1.85;;;;;;;;;;4938347;29;20492;-71
2023/01/27 13:52:47;;;;;;;1.75;1.60;;;4.90;99.90;;;;;;4941578;29;20054;-71
2023/01/27 13:55:14;;;;;;;4.03;2.05;;;4.70;99.90;;;;;;4941087;29;20118;-70
2023/01/27 13:57:40;;;;;;;2.70;2.30;;;;;;;;;;4926056;29;20164;-71
2023/01/27 14:00:18;;;;;;;4.35;2.50;;;;;;;;;;4941201;29;20596;-71
2023/01/27 14:03:07;;;;;;;3.50;3.20;;;;;;;;;;4929405;29;20521;-70
2023/01/27 14:05:33;;;;;;;5.07;2.67;;;;;;;;;;4929370;29;20110;-70
2023/01/27 14:08:29;;;;;;;3.58;2.70;;;4.70;99.90;;;;;;4941394;29;20487;-71
2023/01/27 14:11:01;;;;;;;2.33;2.13;;;;;;;;;;4941043;29;20551;-71
2023/01/27 14:14:01;;;;;;;2.58;1.80;;;4.80;99.90;;;;;;4941563;29;20399;-70
2023/01/27 14:16:39;;;;;;;3.40;1.85;;;;;;;;;;4940920;29;20138;-71
2023/01/27 14:19:43;;;;;;;2.05;1.60;;;4.80;99.90;;;;;;4941089;29;20129;-71
2023/01/27 14:22:27;;;;;;;;;;;4.60;99.90;;;;;;4922310;29;20049;-71
2023/01/27 14:24:59;;;;;;;1.73;1.60;;;4.70;99.90;;;;;;4937704;29;19919;-70
2023/01/27 14:27:29;;;;;;;1.90;1.67;;;;;;;;;;4922175;29;20079;-71
2023/01/27 14:30:13;;;;;;;6.50;1.90;;;4.70;99.90;;;;;;4922180;29;20106;-71
2023/01/27 14:32:59;;;;;;;3.33;1.60;;;4.50;99.90;;;;;;4921395;29;20460;-71
2023/01/27 14:35:25;;;;;;;2.08;1.88;;;;;;;;;;4937747;29;20401;-71
2023/01/27 14:38:18;;;;;;;4.88;2.30;;;4.80;99.90;;;;;;4921778;29;20571;-71
2023/01/27 14:41:02;;;;;;;3.95;2.20;;;;;;;;;;4937563;29;20050;-71
2023/01/27 14:43:43;;;;;;;1.63;1.52;;;4.60;99.90;;;;;;4921771;29;20489;-71
2023/01/27 14:46:21;;;;;;;1.85;1.70;;;;;;;;;;4896572;29;20040;-71
2023/01/27 14:48:53;;;;;;;2.88;1.60;;;;;;;;;;4903110;29;20044;-71
2023/01/27 14:51:22;;;;;;;5.85;1.60;;;;;;;;;;4902466;29;20051;-71
2023/01/27 14:53:51;;;;;;;1.50;1.40;;;;;;;;;;4902558;29;20051;-71
2023/01/27 14:56:36;;;;;;;4.85;2.63;;;;;;;;;;4889113;29;20044;-71
2023/01/27 14:59:02;;;;;;;4.28;1.50;;;;;;;;;;4902520;29;20481;-71
2023/01/27 15:01:41;;;;;;;2.92;1.70;;;;;;;;;;4908380;29;20052;-71
2023/01/27 15:04:10;;;;;;;5.70;2.42;;;;;;;;;;4921531;29;20493;-71